Terminal Aerodrome Forecast
Issued by NWS Grand Rapids, MI

Home | Current Version | Previous Version | Text Only | Print | Product List | Glossary On
Versions: 1 2 3 4 5 6 7 8 9 10 11 12 13 14 15 16
703
FTUS43 KGRR 231551 AAB
TAFGRR
TAF AMD
KGRR 231551Z 2316/2412 36004KT P6SM OVC015
     FM231900 29008KT P6SM VCSH BKN025
     FM232200 29007KT P6SM VCSH BKN060
     FM240300 26005KT P6SM BKN045
     FM240700 VRB04KT 5SM BR BKN008=

USA.gov is the U.S. government's official web portal to all federal, state and local government web resources and services.